sensor_id;sensor_type;location;lat;lon;timestamp;temperature;humidity
53904;DHT22;39812;52.430;16.936;2024-02-28T00:00:46;8.90;4.30
53904;DHT22;39812;52.430;16.936;2024-02-28T00:03:11;9.60;6.90
53904;DHT22;39812;52.430;16.936;2024-02-28T00:05:37;8.80;1.00
53904;DHT22;39812;52.430;16.936;2024-02-28T00:08:02;8.80;5.00
53904;DHT22;39812;52.430;16.936;2024-02-28T00:12:54;10.40;6.30
53904;DHT22;39812;52.430;16.936;2024-02-28T00:15:19;10.70;9.80
53904;DHT22;39812;52.430;16.936;2024-02-28T00:17:45;9.20;9.80
53904;DHT22;39812;52.430;16.936;2024-02-28T00:20:11;4.60;7.30
53904;DHT22;39812;52.430;16.936;2024-02-28T00:22:38;10.50;6.80
53904;DHT22;39812;52.430;16.936;2024-02-28T00:25:04;11.00;8.30
53904;DHT22;39812;52.430;16.936;2024-02-28T00:27:32;9.90;8.60
53904;DHT22;39812;52.430;16.936;2024-02-28T00:32:24;11.00;7.90
53904;DHT22;39812;52.430;16.936;2024-02-28T00:34:50;8.80;5.50
53904;DHT22;39812;52.430;16.936;2024-02-28T00:37:15;8.60;2.70
53904;DHT22;39812;52.430;16.936;2024-02-28T00:39:41;10.10;4.30
53904;DHT22;39812;52.430;16.936;2024-02-28T00:42:06;9.10;1.00
53904;DHT22;39812;52.430;16.936;2024-02-28T00:44:32;5.10;1.00
53904;DHT22;39812;52.430;16.936;2024-02-28T00:46:57;10.20;1.60
53904;DHT22;39812;52.430;16.936;2024-02-28T00:51:49;5.40;1.00
53904;DHT22;39812;52.430;16.936;2024-02-28T00:56:40;5.20;1.00
53904;DHT22;39812;52.430;16.936;2024-02-28T00:59:06;10.30;1.00
53904;DHT22;39812;52.430;16.936;2024-02-28T01:01:32;10.60;1.00
53904;DHT22;39812;52.430;16.936;2024-02-28T01:03:57;11.30;1.00
53904;DHT22;39812;52.430;16.936;2024-02-28T01:06:23;8.30;1.00
53904;DHT22;39812;52.430;16.936;2024-02-28T01:08:48;6.10;1.00
53904;DHT22;39812;52.430;16.936;2024-02-28T01:11:14;8.90;1.00
53904;DHT22;39812;52.430;16.936;2024-02-28T01:16:07;8.10;1.00
53904;DHT22;39812;52.430;16.936;2024-02-28T01:18:32;8.70;1.00
53904;DHT22;39812;52.430;16.936;2024-02-28T01:20:58;9.00;1.00
53904;DHT22;39812;52.430;16.936;2024-02-28T01:25:49;8.40;2.00
53904;DHT22;39812;52.430;16.936;2024-02-28T01:28:15;10.20;8.80
53904;DHT22;39812;52.430;16.936;2024-02-28T01:33:06;10.10;9.00
53904;DHT22;39812;52.430;16.936;2024-02-28T01:35:32;8.60;9.70
53904;DHT22;39812;52.430;16.936;2024-02-28T01:37:57;4.50;9.70
53904;DHT22;39812;52.430;16.936;2024-02-28T01:40:23;9.60;12.50
53904;DHT22;39812;52.430;16.936;2024-02-28T01:42:48;9.90;8.90
53904;DHT22;39812;52.430;16.936;2024-02-28T01:45:14;10.10;13.40
53904;DHT22;39812;52.430;16.936;2024-02-28T01:47:43;8.10;1.00
53904;DHT22;39812;52.430;16.936;2024-02-28T01:50:09;8.50;9.90
53904;DHT22;39812;52.430;16.936;2024-02-28T01:52:37;9.60;1.00
53904;DHT22;39812;52.430;16.936;2024-02-28T01:55:03;9.20;6.80
53904;DHT22;39812;52.430;16.936;2024-02-28T01:57:29;6.90;5.50
53904;DHT22;39812;52.430;16.936;2024-02-28T02:02:21;5.80;1.40
53904;DHT22;39812;52.430;16.936;2024-02-28T02:04:47;8.20;6.00
53904;DHT22;39812;52.430;16.936;2024-02-28T02:07:12;8.40;4.30
53904;DHT22;39812;52.430;16.936;2024-02-28T02:09:38;10.50;5.60
53904;DHT22;39812;52.430;16.936;2024-02-28T02:12:04;8.40;4.50
53904;DHT22;39812;52.430;16.936;2024-02-28T02:14:29;8.60;8.30
53904;DHT22;39812;52.430;16.936;2024-02-28T02:16:55;5.50;3.40
53904;DHT22;39812;52.430;16.936;2024-02-28T02:19:20;10.80;5.70
53904;DHT22;39812;52.430;16.936;2024-02-28T02:21:50;8.60;5.70
53904;DHT22;39812;52.430;16.936;2024-02-28T02:26:43;10.70;3.40
53904;DHT22;39812;52.430;16.936;2024-02-28T02:29:12;11.00;3.90
53904;DHT22;39812;52.430;16.936;2024-02-28T02:34:03;10.10;2.70
53904;DHT22;39812;52.430;16.936;2024-02-28T02:36:29;10.80;1.00
53904;DHT22;39812;52.430;16.936;2024-02-28T02:38:54;8.60;1.00
53904;DHT22;39812;52.430;16.936;2024-02-28T02:41:20;6.80;1.00
53904;DHT22;39812;52.430;16.936;2024-02-28T02:43:45;9.30;1.00
53904;DHT22;39812;52.430;16.936;2024-02-28T02:46:11;9.60;1.30
53904;DHT22;39812;52.430;16.936;2024-02-28T02:48:36;5.90;1.00
53904;DHT22;39812;52.430;16.936;2024-02-28T02:51:02;9.20;1.00
53904;DHT22;39812;52.430;16.936;2024-02-28T02:53:28;11.10;1.00
53904;DHT22;39812;52.430;16.936;2024-02-28T03:00:45;8.50;1.00
53904;DHT22;39812;52.430;16.936;2024-02-28T03:03:11;9.10;1.00
53904;DHT22;39812;52.430;16.936;2024-02-28T03:08:02;7.00;1.00
53904;DHT22;39812;52.430;16.936;2024-02-28T03:10:28;11.10;1.00
53904;DHT22;39812;52.430;16.936;2024-02-28T03:12:54;5.10;1.00
53904;DHT22;39812;52.430;16.936;2024-02-28T03:15:19;5.10;1.00
53904;DHT22;39812;52.430;16.936;2024-02-28T03:17:45;4.90;1.00
53904;DHT22;39812;52.430;16.936;2024-02-28T03:20:11;5.10;1.00
53904;DHT22;39812;52.430;16.936;2024-02-28T03:22:38;11.00;1.00
53904;DHT22;39812;52.430;16.936;2024-02-28T03:25:04;7.20;1.00
53904;DHT22;39812;52.430;16.936;2024-02-28T03:27:30;9.00;1.00
53904;DHT22;39812;52.430;16.936;2024-02-28T03:29:56;11.10;7.10
53904;DHT22;39812;52.430;16.936;2024-02-28T03:32:21;9.80;1.10
53904;DHT22;39812;52.430;16.936;2024-02-28T03:34:47;11.10;10.80
53904;DHT22;39812;52.430;16.936;2024-02-28T03:37:13;9.80;14.70
53904;DHT22;39812;52.430;16.936;2024-02-28T03:39:39;10.90;9.80
53904;DHT22;39812;52.430;16.936;2024-02-28T03:42:04;10.50;17.30
53904;DHT22;39812;52.430;16.936;2024-02-28T03:44:30;9.00;15.50
53904;DHT22;39812;52.430;16.936;2024-02-28T03:46:55;10.50;12.40
53904;DHT22;39812;52.430;16.936;2024-02-28T03:51:47;6.00;1.00
53904;DHT22;39812;52.430;16.936;2024-02-28T03:54:12;8.70;2.50
53904;DHT22;39812;52.430;16.936;2024-02-28T03:56:38;8.80;3.80
53904;DHT22;39812;52.430;16.936;2024-02-28T03:59:03;10.10;5.60
53904;DHT22;39812;52.430;16.936;2024-02-28T04:01:30;8.40;5.10
53904;DHT22;39812;52.430;16.936;2024-02-28T04:03:55;9.20;7.80
53904;DHT22;39812;52.430;16.936;2024-02-28T04:06:21;8.20;6.20
53904;DHT22;39812;52.430;16.936;2024-02-28T04:08:46;10.10;8.90
53904;DHT22;39812;52.430;16.936;2024-02-28T04:11:12;6.40;9.50
53904;DHT22;39812;52.430;16.936;2024-02-28T04:13:37;10.30;10.20
53904;DHT22;39812;52.430;16.936;2024-02-28T04:16:03;10.10;1.50
53904;DHT22;39812;52.430;16.936;2024-02-28T04:18:29;6.00;10.10
53904;DHT22;39812;52.430;16.936;2024-02-28T04:23:21;10.40;15.10
53904;DHT22;39812;52.430;16.936;2024-02-28T04:25:47;9.80;17.20
53904;DHT22;39812;52.430;16.936;2024-02-28T04:30:39;8.10;14.30
53904;DHT22;39812;52.430;16.936;2024-02-28T04:35:30;4.50;11.90
53904;DHT22;39812;52.430;16.936;2024-02-28T04:42:48;10.10;21.10
53904;DHT22;39812;52.430;16.936;2024-02-28T04:47:39;4.30;18.30
53904;DHT22;39812;52.430;16.936;2024-02-28T04:50:05;8.40;20.30
53904;DHT22;39812;52.430;16.936;2024-02-28T04:52:32;4.00;16.90
53904;DHT22;39812;52.430;16.936;2024-02-28T05:02:15;9.00;23.20
53904;DHT22;39812;52.430;16.936;2024-02-28T05:07:08;8.50;24.30
53904;DHT22;39812;52.430;16.936;2024-02-28T05:09:33;7.70;6.80
53904;DHT22;39812;52.430;16.936;2024-02-28T05:11:59;7.80;19.90
53904;DHT22;39812;52.430;16.936;2024-02-28T05:14:25;4.60;13.30
53904;DHT22;39812;52.430;16.936;2024-02-28T05:16:50;9.10;17.90
53904;DHT22;39812;52.430;16.936;2024-02-28T05:19:16;8.10;16.80
53904;DHT22;39812;52.430;16.936;2024-02-28T05:21:45;6.70;3.00
53904;DHT22;39812;52.430;16.936;2024-02-28T05:24:11;7.90;1.00
53904;DHT22;39812;52.430;16.936;2024-02-28T05:26:38;5.10;13.00
53904;DHT22;39812;52.430;16.936;2024-02-28T05:29:04;8.20;15.40
53904;DHT22;39812;52.430;16.936;2024-02-28T05:31:31;4.20;14.70
53904;DHT22;39812;52.430;16.936;2024-02-28T05:33:57;9.60;12.20
53904;DHT22;39812;52.430;16.936;2024-02-28T05:36:25;8.00;1.00
53904;DHT22;39812;52.430;16.936;2024-02-28T05:38:51;8.40;12.00
53904;DHT22;39812;52.430;16.936;2024-02-28T05:41:17;8.10;15.00
53904;DHT22;39812;52.430;16.936;2024-02-28T05:43:43;10.40;3.90
53904;DHT22;39812;52.430;16.936;2024-02-28T05:46:09;7.80;11.00
53904;DHT22;39812;52.430;16.936;2024-02-28T05:48:34;10.00;12.50
53904;DHT22;39812;52.430;16.936;2024-02-28T05:51:01;7.80;10.30
53904;DHT22;39812;52.430;16.936;2024-02-28T05:53:26;5.30;9.10
53904;DHT22;39812;52.430;16.936;2024-02-28T05:55:53;9.80;15.10
53904;DHT22;39812;52.430;16.936;2024-02-28T06:00:48;9.70;16.40
53904;DHT22;39812;52.430;16.936;2024-02-28T06:03:14;7.90;15.90
53904;DHT22;39812;52.430;16.936;2024-02-28T06:05:39;5.30;10.60
53904;DHT22;39812;52.430;16.936;2024-02-28T06:08:05;8.10;14.30
53904;DHT22;39812;52.430;16.936;2024-02-28T06:10:31;8.60;3.20
53904;DHT22;39812;52.430;16.936;2024-02-28T06:12:56;9.50;13.50
53904;DHT22;39812;52.430;16.936;2024-02-28T06:15:22;10.50;12.60
53904;DHT22;39812;52.430;16.936;2024-02-28T06:17:47;6.30;7.70
53904;DHT22;39812;52.430;16.936;2024-02-28T06:20:13;9.10;1.00
53904;DHT22;39812;52.430;16.936;2024-02-28T06:25:05;7.10;4.70
53904;DHT22;39812;52.430;16.936;2024-02-28T06:27:33;8.80;3.70
53904;DHT22;39812;52.430;16.936;2024-02-28T06:30:01;8.30;1.00
53904;DHT22;39812;52.430;16.936;2024-02-28T06:32:27;9.00;2.60
53904;DHT22;39812;52.430;16.936;2024-02-28T06:34:53;7.70;3.50
53904;DHT22;39812;52.430;16.936;2024-02-28T06:39:44;8.00;4.80
53904;DHT22;39812;52.430;16.936;2024-02-28T06:44:36;10.00;6.90
53904;DHT22;39812;52.430;16.936;2024-02-28T06:47:01;10.50;6.60
53904;DHT22;39812;52.430;16.936;2024-02-28T06:51:53;8.10;1.00
53904;DHT22;39812;52.430;16.936;2024-02-28T06:54:20;8.30;1.00
53904;DHT22;39812;52.430;16.936;2024-02-28T06:56:46;8.40;1.00
53904;DHT22;39812;52.430;16.936;2024-02-28T07:08:55;9.40;1.00
53904;DHT22;39812;52.430;16.936;2024-02-28T07:11:21;9.80;1.00
53904;DHT22;39812;52.430;16.936;2024-02-28T07:13:47;8.60;1.00
53904;DHT22;39812;52.430;16.936;2024-02-28T07:18:38;10.30;3.70
53904;DHT22;39812;52.430;16.936;2024-02-28T07:21:03;9.80;1.20
53904;DHT22;39812;52.430;16.936;2024-02-28T07:23:32;9.00;3.80
53904;DHT22;39812;52.430;16.936;2024-02-28T07:28:23;4.20;1.30
53904;DHT22;39812;52.430;16.936;2024-02-28T07:35:45;8.20;1.00
53904;DHT22;39812;52.430;16.936;2024-02-28T07:38:11;8.30;7.20
53904;DHT22;39812;52.430;16.936;2024-02-28T07:40:36;9.30;1.00
53904;DHT22;39812;52.430;16.936;2024-02-28T07:43:02;9.00;15.80
53904;DHT22;39812;52.430;16.936;2024-02-28T07:47:53;6.70;19.90
53904;DHT22;39812;52.430;16.936;2024-02-28T07:57:37;7.00;23.70
53904;DHT22;39812;52.430;16.936;2024-02-28T08:00:03;7.70;14.10
53904;DHT22;39812;52.430;16.936;2024-02-28T08:04:55;7.30;25.30
53904;DHT22;39812;52.430;16.936;2024-02-28T08:07:21;8.20;26.60
53904;DHT22;39812;52.430;16.936;2024-02-28T08:09:47;8.80;27.60
53904;DHT22;39812;52.430;16.936;2024-02-28T08:12:12;9.20;28.20
53904;DHT22;39812;52.430;16.936;2024-02-28T08:17:04;7.70;9.70
53904;DHT22;39812;52.430;16.936;2024-02-28T08:19:29;9.40;27.80
53904;DHT22;39812;52.430;16.936;2024-02-28T08:24:21;9.40;21.80
53904;DHT22;39812;52.430;16.936;2024-02-28T08:26:47;6.30;18.10
53904;DHT22;39812;52.430;16.936;2024-02-28T08:31:43;7.50;9.60
53904;DHT22;39812;52.430;16.936;2024-02-28T08:39:02;8.40;35.30
53904;DHT22;39812;52.430;16.936;2024-02-28T08:41:33;9.00;35.40
53904;DHT22;39812;52.430;16.936;2024-02-28T08:43:59;8.80;37.40
53904;DHT22;39812;52.430;16.936;2024-02-28T08:46:25;7.50;26.60
53904;DHT22;39812;52.430;16.936;2024-02-28T08:51:16;8.90;35.30
53904;DHT22;39812;52.430;16.936;2024-02-28T08:56:08;8.10;36.60
53904;DHT22;39812;52.430;16.936;2024-02-28T09:13:09;7.90;34.40
53904;DHT22;39812;52.430;16.936;2024-02-28T09:22:55;7.60;18.80
53904;DHT22;39812;52.430;16.936;2024-02-28T09:30:13;9.10;3.50
53904;DHT22;39812;52.430;16.936;2024-02-28T09:47:16;7.90;21.60
53904;DHT22;39812;52.430;16.936;2024-02-28T09:49:42;8.00;28.90
53904;DHT22;39812;52.430;16.936;2024-02-28T09:52:08;7.50;28.80
53904;DHT22;39812;52.430;16.936;2024-02-28T09:54:34;8.30;9.60
53904;DHT22;39812;52.430;16.936;2024-02-28T10:01:56;7.10;1.80
53904;DHT22;39812;52.430;16.936;2024-02-28T10:04:26;7.00;1.80
53904;DHT22;39812;52.430;16.936;2024-02-28T10:06:53;8.10;19.70
53904;DHT22;39812;52.430;16.936;2024-02-28T10:09:18;6.60;17.70
53904;DHT22;39812;52.430;16.936;2024-02-28T10:11:44;6.90;3.40
53904;DHT22;39812;52.430;16.936;2024-02-28T10:14:12;7.40;4.20
53904;DHT22;39812;52.430;16.936;2024-02-28T10:16:42;5.50;21.80
53904;DHT22;39812;52.430;16.936;2024-02-28T10:19:07;8.30;22.40
53904;DHT22;39812;52.430;16.936;2024-02-28T10:21:33;6.30;18.60
53904;DHT22;39812;52.430;16.936;2024-02-28T10:23:59;8.30;15.80
53904;DHT22;39812;52.430;16.936;2024-02-28T10:26:25;8.50;13.10
53904;DHT22;39812;52.430;16.936;2024-02-28T10:28:51;8.10;9.40
53904;DHT22;39812;52.430;16.936;2024-02-28T10:33:43;6.10;3.10
53904;DHT22;39812;52.430;16.936;2024-02-28T10:45:59;7.10;1.00
53904;DHT22;39812;52.430;16.936;2024-02-28T10:48:25;7.10;1.00
53904;DHT22;39812;52.430;16.936;2024-02-28T10:50:51;7.20;1.00
53904;DHT22;39812;52.430;16.936;2024-02-28T10:53:22;7.10;1.00
53904;DHT22;39812;52.430;16.936;2024-02-28T10:58:17;7.40;1.00
53904;DHT22;39812;52.430;16.936;2024-02-28T11:00:44;7.20;1.00
53904;DHT22;39812;52.430;16.936;2024-02-28T11:03:13;8.70;1.00
53904;DHT22;39812;52.430;16.936;2024-02-28T11:05:42;8.40;1.00
53904;DHT22;39812;52.430;16.936;2024-02-28T11:08:32;8.80;1.00
53904;DHT22;39812;52.430;16.936;2024-02-28T11:11:03;7.90;1.00
53904;DHT22;39812;52.430;16.936;2024-02-28T11:16:08;8.70;1.00
53904;DHT22;39812;52.430;16.936;2024-02-28T11:18:34;7.50;1.00
53904;DHT22;39812;52.430;16.936;2024-02-28T11:21:00;9.30;1.00
53904;DHT22;39812;52.430;16.936;2024-02-28T11:28:18;3.90;1.00
53904;DHT22;39812;52.430;16.936;2024-02-28T11:35:43;6.70;1.00
53904;DHT22;39812;52.430;16.936;2024-02-28T11:45:39;7.10;1.00
53904;DHT22;39812;52.430;16.936;2024-02-28T11:48:04;8.50;4.20
53904;DHT22;39812;52.430;16.936;2024-02-28T11:55:25;5.70;8.90
53904;DHT22;39812;52.430;16.936;2024-02-28T11:57:51;7.00;1.00
53904;DHT22;39812;52.430;16.936;2024-02-28T12:00:17;7.90;1.00
53904;DHT22;39812;52.430;16.936;2024-02-28T12:02:42;6.40;1.00
53904;DHT22;39812;52.430;16.936;2024-02-28T12:05:08;7.80;1.00
53904;DHT22;39812;52.430;16.936;2024-02-28T12:07:34;6.90;1.00
53904;DHT22;39812;52.430;16.936;2024-02-28T12:10:00;6.00;1.00
53904;DHT22;39812;52.430;16.936;2024-02-28T12:12:29;5.20;1.00
53904;DHT22;39812;52.430;16.936;2024-02-28T12:15:01;4.30;1.00
53904;DHT22;39812;52.430;16.936;2024-02-28T12:17:29;4.10;1.00
53904;DHT22;39812;52.430;16.936;2024-02-28T12:22:21;5.50;1.00
53904;DHT22;39812;52.430;16.936;2024-02-28T12:27:13;6.70;1.00
53904;DHT22;39812;52.430;16.936;2024-02-28T12:29:38;6.80;1.00
53904;DHT22;39812;52.430;16.936;2024-02-28T12:32:04;6.80;1.00
53904;DHT22;39812;52.430;16.936;2024-02-28T12:36:55;6.40;1.00
53904;DHT22;39812;52.430;16.936;2024-02-28T12:41:47;7.00;1.00
53904;DHT22;39812;52.430;16.936;2024-02-28T12:44:13;7.30;1.00
53904;DHT22;39812;52.430;16.936;2024-02-28T12:51:43;6.60;1.00
53904;DHT22;39812;52.430;16.936;2024-02-28T12:56:37;6.60;1.00
53904;DHT22;39812;52.430;16.936;2024-02-28T12:59:04;6.60;1.00
53904;DHT22;39812;52.430;16.936;2024-02-28T13:01:32;6.60;1.00
53904;DHT22;39812;52.430;16.936;2024-02-28T13:06:24;6.40;1.00
53904;DHT22;39812;52.430;16.936;2024-02-28T13:08:49;6.20;1.00
53904;DHT22;39812;52.430;16.936;2024-02-28T13:11:19;6.40;1.00
53904;DHT22;39812;52.430;16.936;2024-02-28T13:18:38;6.30;1.00
53904;DHT22;39812;52.430;16.936;2024-02-28T13:23:30;7.80;1.00
53904;DHT22;39812;52.430;16.936;2024-02-28T13:25:56;8.20;1.00
53904;DHT22;39812;52.430;16.936;2024-02-28T13:28:22;8.30;1.00
53904;DHT22;39812;52.430;16.936;2024-02-28T13:30:58;6.50;1.00
53904;DHT22;39812;52.430;16.936;2024-02-28T13:35:50;7.20;1.00
53904;DHT22;39812;52.430;16.936;2024-02-28T13:38:16;7.60;1.00
53904;DHT22;39812;52.430;16.936;2024-02-28T13:45:37;6.70;1.00
53904;DHT22;39812;52.430;16.936;2024-02-28T13:48:04;7.50;1.00
53904;DHT22;39812;52.430;16.936;2024-02-28T13:52:58;6.20;1.00
53904;DHT22;39812;52.430;16.936;2024-02-28T13:57:49;7.40;1.00
53904;DHT22;39812;52.430;16.936;2024-02-28T14:05:07;7.80;1.00
53904;DHT22;39812;52.430;16.936;2024-02-28T14:07:33;7.20;1.00
53904;DHT22;39812;52.430;16.936;2024-02-28T14:12:28;6.30;1.00
53904;DHT22;39812;52.430;16.936;2024-02-28T14:22:13;5.90;1.00
53904;DHT22;39812;52.430;16.936;2024-02-28T14:24:39;6.10;1.00
53904;DHT22;39812;52.430;16.936;2024-02-28T14:27:05;6.20;1.00
53904;DHT22;39812;52.430;16.936;2024-02-28T14:31:57;6.50;1.00
53904;DHT22;39812;52.430;16.936;2024-02-28T14:36:49;7.30;1.00
53904;DHT22;39812;52.430;16.936;2024-02-28T14:39:16;7.60;1.00
53904;DHT22;39812;52.430;16.936;2024-02-28T14:44:11;6.00;1.00
53904;DHT22;39812;52.430;16.936;2024-02-28T14:46:36;7.50;1.00
53904;DHT22;39812;52.430;16.936;2024-02-28T14:51:28;5.60;1.00
53904;DHT22;39812;52.430;16.936;2024-02-28T14:53:55;4.70;1.00
53904;DHT22;39812;52.430;16.936;2024-02-28T14:58:47;5.40;1.00
53904;DHT22;39812;52.430;16.936;2024-02-28T15:01:13;6.30;1.00
53904;DHT22;39812;52.430;16.936;2024-02-28T15:03:39;5.60;1.00
53904;DHT22;39812;52.430;16.936;2024-02-28T15:15:49;5.80;1.00
53904;DHT22;39812;52.430;16.936;2024-02-28T15:18:15;5.70;1.00
53904;DHT22;39812;52.430;16.936;2024-02-28T15:20:40;5.90;1.00
53904;DHT22;39812;52.430;16.936;2024-02-28T15:23:07;5.70;1.00
53904;DHT22;39812;52.430;16.936;2024-02-28T15:25:32;6.10;1.00
53904;DHT22;39812;52.430;16.936;2024-02-28T15:30:24;6.80;1.00
53904;DHT22;39812;52.430;16.936;2024-02-28T15:42:34;3.40;1.00
53904;DHT22;39812;52.430;16.936;2024-02-28T15:45:00;6.10;1.00
53904;DHT22;39812;52.430;16.936;2024-02-28T15:47:25;6.50;1.00
53904;DHT22;39812;52.430;16.936;2024-02-28T15:52:17;6.60;1.00
53904;DHT22;39812;52.430;16.936;2024-02-28T15:57:09;6.60;1.00
53904;DHT22;39812;52.430;16.936;2024-02-28T16:02:01;5.00;1.00
53904;DHT22;39812;52.430;16.936;2024-02-28T16:04:27;5.30;1.00
53904;DHT22;39812;52.430;16.936;2024-02-28T16:06:52;6.80;1.00
53904;DHT22;39812;52.430;16.936;2024-02-28T16:11:44;5.70;1.00
53904;DHT22;39812;52.430;16.936;2024-02-28T16:14:10;6.20;1.00
53904;DHT22;39812;52.430;16.936;2024-02-28T16:21:28;5.80;1.00
53904;DHT22;39812;52.430;16.936;2024-02-28T16:28:45;5.30;1.00
53904;DHT22;39812;52.430;16.936;2024-02-28T16:31:11;4.40;1.00
53904;DHT22;39812;52.430;16.936;2024-02-28T16:33:37;6.80;1.00
53904;DHT22;39812;52.430;16.936;2024-02-28T16:40:54;6.00;1.00
53904;DHT22;39812;52.430;16.936;2024-02-28T16:45:46;4.00;1.00
53904;DHT22;39812;52.430;16.936;2024-02-28T16:48:12;6.70;1.00
53904;DHT22;39812;52.430;16.936;2024-02-28T16:50:38;5.40;1.00
53904;DHT22;39812;52.430;16.936;2024-02-28T16:55:30;6.70;1.00
53904;DHT22;39812;52.430;16.936;2024-02-28T16:57:55;4.90;1.00
53904;DHT22;39812;52.430;16.936;2024-02-28T17:00:21;6.50;1.00
53904;DHT22;39812;52.430;16.936;2024-02-28T17:10:05;6.70;1.00
53904;DHT22;39812;52.430;16.936;2024-02-28T17:14:56;6.30;1.00
53904;DHT22;39812;52.430;16.936;2024-02-28T17:17:22;5.30;1.00
53904;DHT22;39812;52.430;16.936;2024-02-28T17:19:51;5.10;1.00
53904;DHT22;39812;52.430;16.936;2024-02-28T17:22:18;5.80;1.00
53904;DHT22;39812;52.430;16.936;2024-02-28T17:24:45;6.40;1.00
53904;DHT22;39812;52.430;16.936;2024-02-28T17:27:10;6.40;1.00
53904;DHT22;39812;52.430;16.936;2024-02-28T17:29:36;4.50;1.00
53904;DHT22;39812;52.430;16.936;2024-02-28T17:32:03;3.60;1.00
53904;DHT22;39812;52.430;16.936;2024-02-28T17:34:29;5.30;1.00
53904;DHT22;39812;52.430;16.936;2024-02-28T17:36:54;5.40;1.00
53904;DHT22;39812;52.430;16.936;2024-02-28T17:39:20;4.60;1.00
53904;DHT22;39812;52.430;16.936;2024-02-28T17:41:46;5.20;1.00
53904;DHT22;39812;52.430;16.936;2024-02-28T17:44:14;5.70;1.00
53904;DHT22;39812;52.430;16.936;2024-02-28T17:46:40;4.60;1.00
53904;DHT22;39812;52.430;16.936;2024-02-28T17:51:35;4.10;1.00
53904;DHT22;39812;52.430;16.936;2024-02-28T17:54:08;5.20;1.00
53904;DHT22;39812;52.430;16.936;2024-02-28T17:56:33;2.80;1.00
53904;DHT22;39812;52.430;16.936;2024-02-28T17:58:59;6.40;1.00
53904;DHT22;39812;52.430;16.936;2024-02-28T18:01:26;6.50;1.00
53904;DHT22;39812;52.430;16.936;2024-02-28T18:03:51;5.90;1.00
53904;DHT22;39812;52.430;16.936;2024-02-28T18:06:17;6.20;1.00
53904;DHT22;39812;52.430;16.936;2024-02-28T18:08:44;5.60;1.00
53904;DHT22;39812;52.430;16.936;2024-02-28T18:11:09;5.60;1.00
53904;DHT22;39812;52.430;16.936;2024-02-28T18:13:35;6.60;1.00
53904;DHT22;39812;52.430;16.936;2024-02-28T18:16:01;6.00;1.00
53904;DHT22;39812;52.430;16.936;2024-02-28T18:18:26;6.20;1.00
53904;DHT22;39812;52.430;16.936;2024-02-28T18:20:53;6.60;1.00
53904;DHT22;39812;52.430;16.936;2024-02-28T18:23:19;5.80;1.00
53904;DHT22;39812;52.430;16.936;2024-02-28T18:25:45;3.70;1.00
53904;DHT22;39812;52.430;16.936;2024-02-28T18:28:10;6.40;1.00
53904;DHT22;39812;52.430;16.936;2024-02-28T18:35:28;4.70;1.00
53904;DHT22;39812;52.430;16.936;2024-02-28T18:45:17;5.30;1.00
53904;DHT22;39812;52.430;16.936;2024-02-28T18:50:09;5.90;1.00
53904;DHT22;39812;52.430;16.936;2024-02-28T18:52:35;5.20;1.00
53904;DHT22;39812;52.430;16.936;2024-02-28T19:07:11;5.90;1.00
53904;DHT22;39812;52.430;16.936;2024-02-28T19:09:38;5.90;1.00
53904;DHT22;39812;52.430;16.936;2024-02-28T19:14:30;5.60;1.00
53904;DHT22;39812;52.430;16.936;2024-02-28T19:16:55;5.00;1.00
53904;DHT22;39812;52.430;16.936;2024-02-28T19:19:21;5.10;1.00
53904;DHT22;39812;52.430;16.936;2024-02-28T19:21:46;3.80;1.00
53904;DHT22;39812;52.430;16.936;2024-02-28T19:24:15;5.30;1.00
53904;DHT22;39812;52.430;16.936;2024-02-28T19:29:08;4.70;1.00
53904;DHT22;39812;52.430;16.936;2024-02-28T19:31:34;5.40;1.00
53904;DHT22;39812;52.430;16.936;2024-02-28T19:38:51;5.50;1.00
53904;DHT22;39812;52.430;16.936;2024-02-28T19:41:18;3.90;1.00
53904;DHT22;39812;52.430;16.936;2024-02-28T19:43:43;3.60;1.00
53904;DHT22;39812;52.430;16.936;2024-02-28T19:46:09;4.80;1.00
53904;DHT22;39812;52.430;16.936;2024-02-28T19:48:34;5.00;1.00
53904;DHT22;39812;52.430;16.936;2024-02-28T19:51:01;5.50;1.00
53904;DHT22;39812;52.430;16.936;2024-02-28T19:53:27;3.70;1.00
53904;DHT22;39812;52.430;16.936;2024-02-28T20:00:44;3.60;1.00
53904;DHT22;39812;52.430;16.936;2024-02-28T20:03:10;3.60;1.00
53904;DHT22;39812;52.430;16.936;2024-02-28T20:08:01;4.00;1.00
53904;DHT22;39812;52.430;16.936;2024-02-28T20:12:53;5.40;1.00
53904;DHT22;39812;52.430;16.936;2024-02-28T20:15:20;2.90;1.00
53904;DHT22;39812;52.430;16.936;2024-02-28T20:17:49;5.60;1.00
53904;DHT22;39812;52.430;16.936;2024-02-28T20:20:21;5.60;1.00
53904;DHT22;39812;52.430;16.936;2024-02-28T20:30:07;5.70;1.00
53904;DHT22;39812;52.430;16.936;2024-02-28T20:32:32;4.90;1.00
53904;DHT22;39812;52.430;16.936;2024-02-28T20:34:58;5.10;1.00
53904;DHT22;39812;52.430;16.936;2024-02-28T20:42:17;3.70;1.00
53904;DHT22;39812;52.430;16.936;2024-02-28T20:44:42;3.80;1.00
53904;DHT22;39812;52.430;16.936;2024-02-28T20:49:34;3.70;1.00
53904;DHT22;39812;52.430;16.936;2024-02-28T20:52:02;5.40;1.00
53904;DHT22;39812;52.430;16.936;2024-02-28T20:56:53;5.60;1.00
53904;DHT22;39812;52.430;16.936;2024-02-28T21:01:45;5.30;1.00
53904;DHT22;39812;52.430;16.936;2024-02-28T21:06:39;4.70;1.00
53904;DHT22;39812;52.430;16.936;2024-02-28T21:11:33;4.40;1.00
53904;DHT22;39812;52.430;16.936;2024-02-28T21:16:24;4.90;1.00
53904;DHT22;39812;52.430;16.936;2024-02-28T21:18:50;5.10;1.00
53904;DHT22;39812;52.430;16.936;2024-02-28T21:21:20;5.60;1.00
53904;DHT22;39812;52.430;16.936;2024-02-28T21:28:38;5.60;1.00
53904;DHT22;39812;52.430;16.936;2024-02-28T21:31:03;2.30;1.00
53904;DHT22;39812;52.430;16.936;2024-02-28T21:35:55;4.80;1.00
53904;DHT22;39812;52.430;16.936;2024-02-28T21:40:47;4.10;1.00
53904;DHT22;39812;52.430;16.936;2024-02-28T21:43:13;5.20;1.00
53904;DHT22;39812;52.430;16.936;2024-02-28T21:45:40;4.40;1.00
53904;DHT22;39812;52.430;16.936;2024-02-28T21:48:05;5.20;1.00
53904;DHT22;39812;52.430;16.936;2024-02-28T21:50:32;4.90;1.00
53904;DHT22;39812;52.430;16.936;2024-02-28T21:55:26;3.90;1.00
53904;DHT22;39812;52.430;16.936;2024-02-28T21:57:51;3.50;1.00
53904;DHT22;39812;52.430;16.936;2024-02-28T22:00:17;3.60;1.00
53904;DHT22;39812;52.430;16.936;2024-02-28T22:02:43;4.30;1.00
53904;DHT22;39812;52.430;16.936;2024-02-28T22:05:08;4.60;1.00
53904;DHT22;39812;52.430;16.936;2024-02-28T22:14:52;5.40;1.00
53904;DHT22;39812;52.430;16.936;2024-02-28T22:22:10;4.90;1.00
53904;DHT22;39812;52.430;16.936;2024-02-28T22:24:37;5.10;1.00
53904;DHT22;39812;52.430;16.936;2024-02-28T22:27:02;3.50;1.00
53904;DHT22;39812;52.430;16.936;2024-02-28T22:29:28;3.80;1.00
53904;DHT22;39812;52.430;16.936;2024-02-28T22:34:19;5.30;1.00
53904;DHT22;39812;52.430;16.936;2024-02-28T22:39:11;4.80;1.00
53904;DHT22;39812;52.430;16.936;2024-02-28T22:44:03;5.70;1.00
53904;DHT22;39812;52.430;16.936;2024-02-28T22:48:54;4.60;1.00
53904;DHT22;39812;52.430;16.936;2024-02-28T22:51:20;4.40;1.00
53904;DHT22;39812;52.430;16.936;2024-02-28T22:53:46;4.00;1.00
53904;DHT22;39812;52.430;16.936;2024-02-28T22:56:12;5.40;99.90